sensor_id;sensor_type;location;lat;lon;timestamp;P1;durP1;ratioP1;P2;durP2;ratioP2
54897;SDS011;40800;52.704;6.398;2023-10-19T00:00:38;39.70;;;36.72;;
54897;SDS011;40800;52.704;6.398;2023-10-19T00:03:05;38.85;;;35.72;;
54897;SDS011;40800;52.704;6.398;2023-10-19T00:05:34;39.03;;;35.95;;
54897;SDS011;40800;52.704;6.398;2023-10-19T00:08:04;39.70;;;36.58;;
54897;SDS011;40800;52.704;6.398;2023-10-19T00:10:40;38.97;;;35.97;;
54897;SDS011;40800;52.704;6.398;2023-10-19T00:13:13;40.72;;;37.53;;
54897;SDS011;40800;52.704;6.398;2023-10-19T00:15:39;41.28;;;38.05;;
54897;SDS011;40800;52.704;6.398;2023-10-19T00:18:11;41.40;;;38.30;;
54897;SDS011;40800;52.704;6.398;2023-10-19T00:20:44;43.28;;;39.67;;
54897;SDS011;40800;52.704;6.398;2023-10-19T00:23:11;41.45;;;38.28;;
54897;SDS011;40800;52.704;6.398;2023-10-19T00:25:41;40.85;;;37.65;;
54897;SDS011;40800;52.704;6.398;2023-10-19T00:28:07;41.15;;;37.88;;
54897;SDS011;40800;52.704;6.398;2023-10-19T00:30:33;43.10;;;39.70;;
54897;SDS011;40800;52.704;6.398;2023-10-19T00:33:02;42.45;;;39.05;;
54897;SDS011;40800;52.704;6.398;2023-10-19T00:35:40;41.95;;;38.58;;
54897;SDS011;40800;52.704;6.398;2023-10-19T00:38:22;41.45;;;38.13;;
54897;SDS011;40800;52.704;6.398;2023-10-19T00:40:52;44.42;;;40.72;;
54897;SDS011;40800;52.704;6.398;2023-10-19T00:43:28;43.38;;;40.15;;
54897;SDS011;40800;52.704;6.398;2023-10-19T00:45:57;44.53;;;40.95;;
54897;SDS011;40800;52.704;6.398;2023-10-19T00:48:26;44.15;;;40.70;;
54897;SDS011;40800;52.704;6.398;2023-10-19T00:50:53;45.60;;;41.92;;
54897;SDS011;40800;52.704;6.398;2023-10-19T00:53:32;43.92;;;40.38;;
54897;SDS011;40800;52.704;6.398;2023-10-19T00:55:59;45.05;;;41.35;;
54897;SDS011;40800;52.704;6.398;2023-10-19T00:58:27;46.85;;;42.97;;
54897;SDS011;40800;52.704;6.398;2023-10-19T01:00:55;45.92;;;42.05;;
54897;SDS011;40800;52.704;6.398;2023-10-19T01:03:21;46.33;;;42.17;;
54897;SDS011;40800;52.704;6.398;2023-10-19T01:05:46;48.22;;;42.92;;
54897;SDS011;40800;52.704;6.398;2023-10-19T01:08:15;47.05;;;42.70;;
54897;SDS011;40800;52.704;6.398;2023-10-19T01:10:56;45.90;;;42.00;;
54897;SDS011;40800;52.704;6.398;2023-10-19T01:13:22;46.03;;;42.23;;
54897;SDS011;40800;52.704;6.398;2023-10-19T01:15:59;45.40;;;41.72;;
54897;SDS011;40800;52.704;6.398;2023-10-19T01:18:25;46.22;;;42.58;;
54897;SDS011;40800;52.704;6.398;2023-10-19T01:20:54;45.95;;;42.45;;
54897;SDS011;40800;52.704;6.398;2023-10-19T01:23:27;46.47;;;42.97;;
54897;SDS011;40800;52.704;6.398;2023-10-19T01:25:53;47.42;;;43.72;;
54897;SDS011;40800;52.704;6.398;2023-10-19T01:28:21;45.55;;;42.00;;
54897;SDS011;40800;52.704;6.398;2023-10-19T01:31:21;45.35;;;41.95;;
54897;SDS011;40800;52.704;6.398;2023-10-19T01:33:56;45.72;;;42.33;;
54897;SDS011;40800;52.704;6.398;2023-10-19T01:36:23;46.40;;;42.90;;
54897;SDS011;40800;52.704;6.398;2023-10-19T01:38:50;46.17;;;42.83;;
54897;SDS011;40800;52.704;6.398;2023-10-19T01:41:19;46.75;;;43.42;;
54897;SDS011;40800;52.704;6.398;2023-10-19T01:43:45;46.78;;;43.38;;
54897;SDS011;40800;52.704;6.398;2023-10-19T01:46:18;48.13;;;44.53;;
54897;SDS011;40800;52.704;6.398;2023-10-19T01:48:47;47.17;;;43.53;;
54897;SDS011;40800;52.704;6.398;2023-10-19T01:51:15;46.92;;;43.67;;
54897;SDS011;40800;52.704;6.398;2023-10-19T01:53:42;47.15;;;43.85;;
54897;SDS011;40800;52.704;6.398;2023-10-19T01:56:11;48.28;;;44.75;;
54897;SDS011;40800;52.704;6.398;2023-10-19T01:58:41;47.13;;;43.83;;
54897;SDS011;40800;52.704;6.398;2023-10-19T02:01:08;46.88;;;43.58;;
54897;SDS011;40800;52.704;6.398;2023-10-19T02:03:38;47.25;;;43.92;;
54897;SDS011;40800;52.704;6.398;2023-10-19T02:06:07;45.55;;;42.45;;
54897;SDS011;40800;52.704;6.398;2023-10-19T02:08:48;47.72;;;44.35;;
54897;SDS011;40800;52.704;6.398;2023-10-19T02:11:16;46.40;;;43.20;;
54897;SDS011;40800;52.704;6.398;2023-10-19T02:13:45;47.78;;;44.47;;
54897;SDS011;40800;52.704;6.398;2023-10-19T02:16:12;48.33;;;45.03;;
54897;SDS011;40800;52.704;6.398;2023-10-19T02:18:44;48.03;;;44.83;;
54897;SDS011;40800;52.704;6.398;2023-10-19T02:21:10;46.65;;;43.47;;
54897;SDS011;40800;52.704;6.398;2023-10-19T02:23:39;47.20;;;44.17;;
54897;SDS011;40800;52.704;6.398;2023-10-19T02:26:09;48.35;;;45.05;;
54897;SDS011;40800;52.704;6.398;2023-10-19T02:28:38;47.58;;;44.55;;
54897;SDS011;40800;52.704;6.398;2023-10-19T02:31:04;45.80;;;42.75;;
54897;SDS011;40800;52.704;6.398;2023-10-19T02:33:40;45.47;;;42.58;;
54897;SDS011;40800;52.704;6.398;2023-10-19T02:36:07;46.42;;;43.22;;
54897;SDS011;40800;52.704;6.398;2023-10-19T02:38:38;47.10;;;44.00;;
54897;SDS011;40800;52.704;6.398;2023-10-19T02:43:30;43.65;;;41.00;;
54897;SDS011;40800;52.704;6.398;2023-10-19T02:45:58;44.65;;;41.72;;
54897;SDS011;40800;52.704;6.398;2023-10-19T02:48:24;46.28;;;43.38;;
54897;SDS011;40800;52.704;6.398;2023-10-19T02:50:50;45.40;;;42.50;;
54897;SDS011;40800;52.704;6.398;2023-10-19T02:53:15;45.22;;;42.33;;
54897;SDS011;40800;52.704;6.398;2023-10-19T02:55:44;45.10;;;42.10;;
54897;SDS011;40800;52.704;6.398;2023-10-19T02:58:09;46.33;;;43.40;;
54897;SDS011;40800;52.704;6.398;2023-10-19T03:00:39;47.30;;;44.30;;
54897;SDS011;40800;52.704;6.398;2023-10-19T03:03:05;45.95;;;42.95;;
54897;SDS011;40800;52.704;6.398;2023-10-19T03:05:31;46.60;;;43.67;;
54897;SDS011;40800;52.704;6.398;2023-10-19T03:07:59;47.58;;;44.38;;
54897;SDS011;40800;52.704;6.398;2023-10-19T03:10:30;47.88;;;44.78;;
54897;SDS011;40800;52.704;6.398;2023-10-19T03:13:06;47.70;;;44.60;;
54897;SDS011;40800;52.704;6.398;2023-10-19T03:15:33;48.72;;;45.42;;
54897;SDS011;40800;52.704;6.398;2023-10-19T03:17:59;47.42;;;44.22;;
54897;SDS011;40800;52.704;6.398;2023-10-19T03:20:26;46.58;;;43.58;;
54897;SDS011;40800;52.704;6.398;2023-10-19T03:22:53;46.80;;;43.70;;
54897;SDS011;40800;52.704;6.398;2023-10-19T03:25:23;47.03;;;43.83;;
54897;SDS011;40800;52.704;6.398;2023-10-19T03:28:07;47.83;;;44.63;;
54897;SDS011;40800;52.704;6.398;2023-10-19T03:30:36;47.35;;;44.15;;
54897;SDS011;40800;52.704;6.398;2023-10-19T03:33:06;48.38;;;45.08;;
54897;SDS011;40800;52.704;6.398;2023-10-19T03:35:37;47.35;;;44.25;;
54897;SDS011;40800;52.704;6.398;2023-10-19T03:38:06;47.55;;;44.35;;
54897;SDS011;40800;52.704;6.398;2023-10-19T03:40:43;48.10;;;44.83;;
54897;SDS011;40800;52.704;6.398;2023-10-19T03:43:16;48.72;;;45.42;;
54897;SDS011;40800;52.704;6.398;2023-10-19T03:45:48;49.95;;;46.63;;
54897;SDS011;40800;52.704;6.398;2023-10-19T03:48:20;48.50;;;45.20;;
54897;SDS011;40800;52.704;6.398;2023-10-19T03:50:55;48.58;;;45.28;;
54897;SDS011;40800;52.704;6.398;2023-10-19T03:53:21;48.30;;;45.03;;
54897;SDS011;40800;52.704;6.398;2023-10-19T03:55:47;48.28;;;44.88;;
54897;SDS011;40800;52.704;6.398;2023-10-19T04:00:41;49.05;;;45.65;;
54897;SDS011;40800;52.704;6.398;2023-10-19T04:03:06;48.22;;;45.05;;
54897;SDS011;40800;52.704;6.398;2023-10-19T04:05:32;48.33;;;45.03;;
54897;SDS011;40800;52.704;6.398;2023-10-19T04:08:03;49.42;;;46.13;;
54897;SDS011;40800;52.704;6.398;2023-10-19T04:10:46;50.10;;;46.70;;
54897;SDS011;40800;52.704;6.398;2023-10-19T04:13:31;51.17;;;47.85;;
54897;SDS011;40800;52.704;6.398;2023-10-19T04:15:57;50.75;;;47.22;;
54897;SDS011;40800;52.704;6.398;2023-10-19T04:18:22;51.47;;;48.00;;
54897;SDS011;40800;52.704;6.398;2023-10-19T04:20:50;51.28;;;47.78;;
54897;SDS011;40800;52.704;6.398;2023-10-19T04:23:20;50.58;;;47.28;;
54897;SDS011;40800;52.704;6.398;2023-10-19T04:25:50;49.63;;;46.35;;
54897;SDS011;40800;52.704;6.398;2023-10-19T04:28:15;51.58;;;48.08;;
54897;SDS011;40800;52.704;6.398;2023-10-19T04:33:08;52.13;;;48.70;;
54897;SDS011;40800;52.704;6.398;2023-10-19T04:35:36;51.55;;;48.05;;
54897;SDS011;40800;52.704;6.398;2023-10-19T04:38:03;51.42;;;48.05;;
54897;SDS011;40800;52.704;6.398;2023-10-19T04:40:33;51.38;;;47.97;;
54897;SDS011;40800;52.704;6.398;2023-10-19T04:42:59;51.85;;;48.53;;
54897;SDS011;40800;52.704;6.398;2023-10-19T04:45:28;50.85;;;47.45;;
54897;SDS011;40800;52.704;6.398;2023-10-19T04:47:54;51.35;;;48.05;;
54897;SDS011;40800;52.704;6.398;2023-10-19T04:50:20;51.75;;;48.35;;
54897;SDS011;40800;52.704;6.398;2023-10-19T04:52:46;51.53;;;48.08;;
54897;SDS011;40800;52.704;6.398;2023-10-19T04:55:12;51.75;;;48.25;;
54897;SDS011;40800;52.704;6.398;2023-10-19T04:57:38;53.35;;;49.95;;
54897;SDS011;40800;52.704;6.398;2023-10-19T05:00:04;51.58;;;48.17;;
54897;SDS011;40800;52.704;6.398;2023-10-19T05:02:30;52.30;;;48.90;;
54897;SDS011;40800;52.704;6.398;2023-10-19T05:04:55;52.05;;;48.65;;
54897;SDS011;40800;52.704;6.398;2023-10-19T05:07:21;52.10;;;48.75;;
54897;SDS011;40800;52.704;6.398;2023-10-19T05:09:47;49.28;;;46.08;;
54897;SDS011;40800;52.704;6.398;2023-10-19T05:12:16;52.63;;;49.15;;
54897;SDS011;40800;52.704;6.398;2023-10-19T05:14:42;50.50;;;47.20;;
54897;SDS011;40800;52.704;6.398;2023-10-19T05:17:08;53.47;;;50.00;;
54897;SDS011;40800;52.704;6.398;2023-10-19T05:19:34;53.30;;;49.87;;
54897;SDS011;40800;52.704;6.398;2023-10-19T05:22:01;51.90;;;48.58;;
54897;SDS011;40800;52.704;6.398;2023-10-19T05:24:30;52.88;;;49.40;;
54897;SDS011;40800;52.704;6.398;2023-10-19T05:26:57;51.72;;;48.42;;
54897;SDS011;40800;52.704;6.398;2023-10-19T05:29:23;53.08;;;49.55;;
54897;SDS011;40800;52.704;6.398;2023-10-19T05:31:51;52.97;;;49.47;;
54897;SDS011;40800;52.704;6.398;2023-10-19T05:34:21;52.53;;;48.97;;
54897;SDS011;40800;52.704;6.398;2023-10-19T05:36:48;52.22;;;48.72;;
54897;SDS011;40800;52.704;6.398;2023-10-19T05:39:16;53.13;;;49.60;;
54897;SDS011;40800;52.704;6.398;2023-10-19T05:41:42;53.63;;;50.03;;
54897;SDS011;40800;52.704;6.398;2023-10-19T05:44:08;54.58;;;50.88;;
54897;SDS011;40800;52.704;6.398;2023-10-19T05:46:34;55.15;;;51.22;;
54897;SDS011;40800;52.704;6.398;2023-10-19T05:48:59;53.67;;;50.05;;
54897;SDS011;40800;52.704;6.398;2023-10-19T05:51:29;56.25;;;52.30;;
54897;SDS011;40800;52.704;6.398;2023-10-19T05:53:55;55.33;;;51.72;;
54897;SDS011;40800;52.704;6.398;2023-10-19T05:56:27;55.90;;;52.05;;
54897;SDS011;40800;52.704;6.398;2023-10-19T05:58:53;57.63;;;53.93;;
54897;SDS011;40800;52.704;6.398;2023-10-19T06:01:19;58.92;;;54.72;;
54897;SDS011;40800;52.704;6.398;2023-10-19T06:03:45;59.58;;;55.55;;
54897;SDS011;40800;52.704;6.398;2023-10-19T06:06:10;59.42;;;55.45;;
54897;SDS011;40800;52.704;6.398;2023-10-19T06:08:36;59.50;;;55.33;;
54897;SDS011;40800;52.704;6.398;2023-10-19T06:11:02;60.63;;;56.50;;
54897;SDS011;40800;52.704;6.398;2023-10-19T06:13:27;62.13;;;57.83;;
54897;SDS011;40800;52.704;6.398;2023-10-19T06:15:54;62.30;;;58.10;;
54897;SDS011;40800;52.704;6.398;2023-10-19T06:18:20;60.90;;;56.60;;
54897;SDS011;40800;52.704;6.398;2023-10-19T06:20:45;60.38;;;55.92;;
54897;SDS011;40800;52.704;6.398;2023-10-19T06:23:12;59.30;;;55.20;;
54897;SDS011;40800;52.704;6.398;2023-10-19T06:25:38;59.38;;;55.08;;
54897;SDS011;40800;52.704;6.398;2023-10-19T06:28:04;66.70;;;62.20;;
54897;SDS011;40800;52.704;6.398;2023-10-19T06:30:31;59.88;;;55.38;;
54897;SDS011;40800;52.704;6.398;2023-10-19T06:32:58;62.38;;;58.05;;
54897;SDS011;40800;52.704;6.398;2023-10-19T06:35:25;63.90;;;59.35;;
54897;SDS011;40800;52.704;6.398;2023-10-19T06:37:53;62.83;;;58.38;;
54897;SDS011;40800;52.704;6.398;2023-10-19T06:40:22;64.43;;;59.92;;
54897;SDS011;40800;52.704;6.398;2023-10-19T06:42:48;67.13;;;62.53;;
54897;SDS011;40800;52.704;6.398;2023-10-19T06:45:15;63.28;;;58.85;;
54897;SDS011;40800;52.704;6.398;2023-10-19T06:47:42;63.65;;;59.35;;
54897;SDS011;40800;52.704;6.398;2023-10-19T06:50:09;63.90;;;59.55;;
54897;SDS011;40800;52.704;6.398;2023-10-19T06:52:39;66.45;;;61.58;;
54897;SDS011;40800;52.704;6.398;2023-10-19T06:55:05;64.75;;;60.13;;
54897;SDS011;40800;52.704;6.398;2023-10-19T06:57:38;64.22;;;59.63;;
54897;SDS011;40800;52.704;6.398;2023-10-19T07:00:05;65.43;;;60.92;;
54897;SDS011;40800;52.704;6.398;2023-10-19T07:02:39;64.43;;;59.92;;
54897;SDS011;40800;52.704;6.398;2023-10-19T07:05:09;64.18;;;59.67;;
54897;SDS011;40800;52.704;6.398;2023-10-19T07:07:42;64.80;;;60.15;;
54897;SDS011;40800;52.704;6.398;2023-10-19T07:10:08;62.70;;;58.30;;
54897;SDS011;40800;52.704;6.398;2023-10-19T07:12:37;64.28;;;59.95;;
54897;SDS011;40800;52.704;6.398;2023-10-19T07:15:06;64.13;;;59.63;;
54897;SDS011;40800;52.704;6.398;2023-10-19T07:17:33;64.47;;;59.78;;
54897;SDS011;40800;52.704;6.398;2023-10-19T07:20:00;65.88;;;61.33;;
54897;SDS011;40800;52.704;6.398;2023-10-19T07:22:31;66.35;;;61.45;;
54897;SDS011;40800;52.704;6.398;2023-10-19T07:24:57;66.15;;;61.60;;
54897;SDS011;40800;52.704;6.398;2023-10-19T07:27:23;65.32;;;60.83;;
54897;SDS011;40800;52.704;6.398;2023-10-19T07:29:52;65.35;;;60.95;;
54897;SDS011;40800;52.704;6.398;2023-10-19T07:32:18;66.40;;;61.80;;
54897;SDS011;40800;52.704;6.398;2023-10-19T07:34:43;66.32;;;61.72;;
54897;SDS011;40800;52.704;6.398;2023-10-19T07:37:09;67.65;;;62.97;;
54897;SDS011;40800;52.704;6.398;2023-10-19T07:39:40;68.65;;;63.85;;
54897;SDS011;40800;52.704;6.398;2023-10-19T07:42:13;67.93;;;63.22;;
54897;SDS011;40800;52.704;6.398;2023-10-19T07:44:39;68.00;;;63.30;;
54897;SDS011;40800;52.704;6.398;2023-10-19T07:47:05;68.32;;;63.47;;
54897;SDS011;40800;52.704;6.398;2023-10-19T07:49:34;68.88;;;64.18;;
54897;SDS011;40800;52.704;6.398;2023-10-19T07:52:03;68.97;;;64.03;;
54897;SDS011;40800;52.704;6.398;2023-10-19T07:54:35;69.57;;;64.47;;
54897;SDS011;40800;52.704;6.398;2023-10-19T07:57:04;69.50;;;64.70;;
54897;SDS011;40800;52.704;6.398;2023-10-19T07:59:32;68.45;;;63.65;;
54897;SDS011;40800;52.704;6.398;2023-10-19T08:01:58;70.03;;;64.72;;
54897;SDS011;40800;52.704;6.398;2023-10-19T08:04:27;70.32;;;65.32;;
54897;SDS011;40800;52.704;6.398;2023-10-19T08:06:56;69.28;;;64.28;;
54897;SDS011;40800;52.704;6.398;2023-10-19T08:09:23;71.57;;;66.28;;
54897;SDS011;40800;52.704;6.398;2023-10-19T08:11:50;70.28;;;65.30;;
54897;SDS011;40800;52.704;6.398;2023-10-19T08:14:20;73.28;;;67.88;;
54897;SDS011;40800;52.704;6.398;2023-10-19T08:16:50;71.93;;;66.80;;
54897;SDS011;40800;52.704;6.398;2023-10-19T08:19:16;72.87;;;67.47;;
54897;SDS011;40800;52.704;6.398;2023-10-19T08:21:41;71.65;;;66.47;;
54897;SDS011;40800;52.704;6.398;2023-10-19T08:24:07;69.63;;;64.75;;
54897;SDS011;40800;52.704;6.398;2023-10-19T08:26:39;73.72;;;68.50;;
54897;SDS011;40800;52.704;6.398;2023-10-19T08:31:38;72.65;;;67.07;;
54897;SDS011;40800;52.704;6.398;2023-10-19T08:34:05;69.80;;;64.75;;
54897;SDS011;40800;52.704;6.398;2023-10-19T08:36:31;69.90;;;65.07;;
54897;SDS011;40800;52.704;6.398;2023-10-19T08:38:56;70.72;;;65.75;;
54897;SDS011;40800;52.704;6.398;2023-10-19T08:41:22;72.20;;;66.88;;
54897;SDS011;40800;52.704;6.398;2023-10-19T08:43:48;72.35;;;67.00;;
54897;SDS011;40800;52.704;6.398;2023-10-19T08:46:15;72.93;;;67.55;;
54897;SDS011;40800;52.704;6.398;2023-10-19T08:48:41;72.65;;;67.45;;
54897;SDS011;40800;52.704;6.398;2023-10-19T08:51:10;72.70;;;67.60;;
54897;SDS011;40800;52.704;6.398;2023-10-19T08:53:39;74.43;;;69.00;;
54897;SDS011;40800;52.704;6.398;2023-10-19T08:56:06;72.05;;;66.75;;
54897;SDS011;40800;52.704;6.398;2023-10-19T09:00:58;72.75;;;67.43;;
54897;SDS011;40800;52.704;6.398;2023-10-19T09:03:31;73.90;;;68.50;;
54897;SDS011;40800;52.704;6.398;2023-10-19T09:05:57;74.13;;;68.78;;
54897;SDS011;40800;52.704;6.398;2023-10-19T09:08:26;74.70;;;69.10;;
54897;SDS011;40800;52.704;6.398;2023-10-19T09:11:06;73.97;;;68.73;;
54897;SDS011;40800;52.704;6.398;2023-10-19T09:14:09;73.65;;;68.25;;
54897;SDS011;40800;52.704;6.398;2023-10-19T09:16:29;72.88;;;67.57;;
54897;SDS011;40800;52.704;6.398;2023-10-19T09:18:55;73.53;;;68.13;;
54897;SDS011;40800;52.704;6.398;2023-10-19T09:21:22;73.67;;;68.17;;
54897;SDS011;40800;52.704;6.398;2023-10-19T09:23:57;71.78;;;66.57;;
54897;SDS011;40800;52.704;6.398;2023-10-19T09:26:23;71.43;;;66.40;;
54897;SDS011;40800;52.704;6.398;2023-10-19T09:28:51;72.75;;;67.18;;
54897;SDS011;40800;52.704;6.398;2023-10-19T09:31:19;71.95;;;66.70;;
54897;SDS011;40800;52.704;6.398;2023-10-19T09:33:46;72.18;;;67.00;;
54897;SDS011;40800;52.704;6.398;2023-10-19T09:36:14;73.60;;;67.85;;
54897;SDS011;40800;52.704;6.398;2023-10-19T09:38:49;71.88;;;66.63;;
54897;SDS011;40800;52.704;6.398;2023-10-19T09:41:20;71.47;;;66.25;;
54897;SDS011;40800;52.704;6.398;2023-10-19T09:43:57;71.82;;;66.53;;
54897;SDS011;40800;52.704;6.398;2023-10-19T09:46:31;72.40;;;67.18;;
54897;SDS011;40800;52.704;6.398;2023-10-19T09:48:57;73.13;;;67.60;;
54897;SDS011;40800;52.704;6.398;2023-10-19T09:56:57;71.93;;;66.82;;
54897;SDS011;40800;52.704;6.398;2023-10-19T09:59:38;71.15;;;66.10;;
54897;SDS011;40800;52.704;6.398;2023-10-19T10:02:09;69.20;;;64.20;;
54897;SDS011;40800;52.704;6.398;2023-10-19T10:04:40;70.63;;;65.43;;
54897;SDS011;40800;52.704;6.398;2023-10-19T10:07:08;70.07;;;65.03;;
54897;SDS011;40800;52.704;6.398;2023-10-19T10:09:43;72.32;;;67.10;;
54897;SDS011;40800;52.704;6.398;2023-10-19T10:12:23;70.75;;;65.72;;
54897;SDS011;40800;52.704;6.398;2023-10-19T10:14:59;69.80;;;64.63;;
54897;SDS011;40800;52.704;6.398;2023-10-19T10:17:33;67.32;;;62.58;;
54897;SDS011;40800;52.704;6.398;2023-10-19T10:20:28;68.28;;;63.45;;
54897;SDS011;40800;52.704;6.398;2023-10-19T10:25:46;68.28;;;63.40;;
54897;SDS011;40800;52.704;6.398;2023-10-19T10:28:18;68.43;;;63.63;;
54897;SDS011;40800;52.704;6.398;2023-10-19T10:33:43;66.88;;;62.22;;
54897;SDS011;40800;52.704;6.398;2023-10-19T10:36:20;67.35;;;62.78;;
54897;SDS011;40800;52.704;6.398;2023-10-19T10:38:46;68.82;;;63.97;;
54897;SDS011;40800;52.704;6.398;2023-10-19T10:41:22;71.18;;;66.18;;
54897;SDS011;40800;52.704;6.398;2023-10-19T10:43:56;67.57;;;62.88;;
54897;SDS011;40800;52.704;6.398;2023-10-19T10:46:24;68.47;;;63.47;;
54897;SDS011;40800;52.704;6.398;2023-10-19T10:48:52;68.10;;;63.00;;
54897;SDS011;40800;52.704;6.398;2023-10-19T10:51:18;67.90;;;63.13;;
54897;SDS011;40800;52.704;6.398;2023-10-19T10:53:47;68.43;;;63.67;;
54897;SDS011;40800;52.704;6.398;2023-10-19T10:58:39;68.60;;;63.78;;
54897;SDS011;40800;52.704;6.398;2023-10-19T11:01:05;69.17;;;64.17;;
54897;SDS011;40800;52.704;6.398;2023-10-19T11:03:31;70.13;;;65.10;;
54897;SDS011;40800;52.704;6.398;2023-10-19T11:06:03;69.38;;;64.45;;
54897;SDS011;40800;52.704;6.398;2023-10-19T11:08:29;73.53;;;68.10;;
54897;SDS011;40800;52.704;6.398;2023-10-19T11:11:01;71.60;;;66.25;;
54897;SDS011;40800;52.704;6.398;2023-10-19T11:13:29;72.38;;;67.30;;
54897;SDS011;40800;52.704;6.398;2023-10-19T11:15:58;70.80;;;65.70;;
54897;SDS011;40800;52.704;6.398;2023-10-19T11:20:55;68.50;;;63.58;;
54897;SDS011;40800;52.704;6.398;2023-10-19T11:23:43;68.72;;;63.72;;
54897;SDS011;40800;52.704;6.398;2023-10-19T11:26:08;70.32;;;65.18;;
54897;SDS011;40800;52.704;6.398;2023-10-19T11:28:35;70.03;;;65.22;;
54897;SDS011;40800;52.704;6.398;2023-10-19T11:31:11;68.68;;;63.85;;
54897;SDS011;40800;52.704;6.398;2023-10-19T11:33:42;69.28;;;64.18;;
54897;SDS011;40800;52.704;6.398;2023-10-19T11:36:09;69.80;;;64.85;;
54897;SDS011;40800;52.704;6.398;2023-10-19T11:38:40;69.72;;;64.70;;
54897;SDS011;40800;52.704;6.398;2023-10-19T11:41:09;68.25;;;63.38;;
54897;SDS011;40800;52.704;6.398;2023-10-19T11:43:36;70.53;;;65.65;;
54897;SDS011;40800;52.704;6.398;2023-10-19T11:46:03;68.85;;;64.05;;
54897;SDS011;40800;52.704;6.398;2023-10-19T11:48:32;68.28;;;63.28;;
54897;SDS011;40800;52.704;6.398;2023-10-19T11:50:59;68.53;;;63.72;;
54897;SDS011;40800;52.704;6.398;2023-10-19T11:53:29;70.07;;;64.65;;
54897;SDS011;40800;52.704;6.398;2023-10-19T11:55:58;70.22;;;65.13;;
54897;SDS011;40800;52.704;6.398;2023-10-19T11:58:25;69.60;;;64.53;;
54897;SDS011;40800;52.704;6.398;2023-10-19T12:00:51;67.03;;;62.10;;
54897;SDS011;40800;52.704;6.398;2023-10-19T12:03:20;69.55;;;64.43;;
54897;SDS011;40800;52.704;6.398;2023-10-19T12:05:45;68.63;;;63.42;;
54897;SDS011;40800;52.704;6.398;2023-10-19T12:08:11;66.47;;;61.83;;
54897;SDS011;40800;52.704;6.398;2023-10-19T12:10:36;67.63;;;62.42;;
54897;SDS011;40800;52.704;6.398;2023-10-19T12:13:03;69.17;;;63.73;;
54897;SDS011;40800;52.704;6.398;2023-10-19T12:15:33;68.72;;;63.58;;
54897;SDS011;40800;52.704;6.398;2023-10-19T12:17:59;70.38;;;65.38;;
54897;SDS011;40800;52.704;6.398;2023-10-19T12:20:27;67.35;;;62.50;;
54897;SDS011;40800;52.704;6.398;2023-10-19T12:22:56;67.72;;;62.60;;
54897;SDS011;40800;52.704;6.398;2023-10-19T12:25:22;64.32;;;59.72;;
54897;SDS011;40800;52.704;6.398;2023-10-19T12:27:57;65.57;;;60.83;;
54897;SDS011;40800;52.704;6.398;2023-10-19T12:30:23;63.65;;;59.35;;
54897;SDS011;40800;52.704;6.398;2023-10-19T12:32:54;64.53;;;60.13;;
54897;SDS011;40800;52.704;6.398;2023-10-19T12:35:19;64.30;;;59.80;;
54897;SDS011;40800;52.704;6.398;2023-10-19T12:37:49;67.55;;;62.42;;
54897;SDS011;40800;52.704;6.398;2023-10-19T12:40:18;70.97;;;65.97;;
54897;SDS011;40800;52.704;6.398;2023-10-19T12:43:00;68.35;;;63.53;;
54897;SDS011;40800;52.704;6.398;2023-10-19T12:45:32;67.60;;;62.80;;
54897;SDS011;40800;52.704;6.398;2023-10-19T12:48:02;66.75;;;61.75;;
54897;SDS011;40800;52.704;6.398;2023-10-19T12:50:29;67.32;;;62.30;;
54897;SDS011;40800;52.704;6.398;2023-10-19T12:52:56;67.40;;;62.37;;
54897;SDS011;40800;52.704;6.398;2023-10-19T12:55:22;67.60;;;62.78;;
54897;SDS011;40800;52.704;6.398;2023-10-19T12:57:51;67.53;;;62.60;;
54897;SDS011;40800;52.704;6.398;2023-10-19T13:00:22;66.60;;;61.63;;
54897;SDS011;40800;52.704;6.398;2023-10-19T13:02:54;67.35;;;62.63;;
54897;SDS011;40800;52.704;6.398;2023-10-19T13:05:31;72.57;;;67.20;;
54897;SDS011;40800;52.704;6.398;2023-10-19T13:07:57;72.35;;;67.03;;
54897;SDS011;40800;52.704;6.398;2023-10-19T13:10:27;72.20;;;66.70;;
54897;SDS011;40800;52.704;6.398;2023-10-19T13:12:54;73.20;;;67.78;;
54897;SDS011;40800;52.704;6.398;2023-10-19T13:15:20;73.82;;;68.07;;
54897;SDS011;40800;52.704;6.398;2023-10-19T13:17:47;74.00;;;68.32;;
54897;SDS011;40800;52.704;6.398;2023-10-19T13:20:13;71.70;;;66.38;;
54897;SDS011;40800;52.704;6.398;2023-10-19T13:22:43;75.93;;;70.32;;
54897;SDS011;40800;52.704;6.398;2023-10-19T13:25:09;77.63;;;71.72;;
54897;SDS011;40800;52.704;6.398;2023-10-19T13:27:38;78.35;;;72.32;;
54897;SDS011;40800;52.704;6.398;2023-10-19T13:30:07;79.20;;;72.70;;
54897;SDS011;40800;52.704;6.398;2023-10-19T13:32:36;79.00;;;72.68;;
54897;SDS011;40800;52.704;6.398;2023-10-19T13:35:02;80.45;;;73.60;;
54897;SDS011;40800;52.704;6.398;2023-10-19T13:37:28;79.70;;;73.20;;
54897;SDS011;40800;52.704;6.398;2023-10-19T13:39:53;78.43;;;71.82;;
54897;SDS011;40800;52.704;6.398;2023-10-19T13:42:20;80.72;;;73.93;;
54897;SDS011;40800;52.704;6.398;2023-10-19T13:44:47;80.13;;;73.53;;
54897;SDS011;40800;52.704;6.398;2023-10-19T13:47:12;80.53;;;73.95;;
54897;SDS011;40800;52.704;6.398;2023-10-19T13:49:38;78.43;;;72.15;;
54897;SDS011;40800;52.704;6.398;2023-10-19T13:52:04;80.97;;;73.25;;
54897;SDS011;40800;52.704;6.398;2023-10-19T13:54:29;78.18;;;72.00;;
54897;SDS011;40800;52.704;6.398;2023-10-19T13:56:55;76.93;;;70.78;;
54897;SDS011;40800;52.704;6.398;2023-10-19T13:59:21;76.07;;;69.85;;
54897;SDS011;40800;52.704;6.398;2023-10-19T14:01:49;76.53;;;70.32;;
54897;SDS011;40800;52.704;6.398;2023-10-19T14:04:15;76.28;;;70.07;;
54897;SDS011;40800;52.704;6.398;2023-10-19T14:06:41;75.70;;;69.13;;
54897;SDS011;40800;52.704;6.398;2023-10-19T14:09:08;72.80;;;66.80;;
54897;SDS011;40800;52.704;6.398;2023-10-19T14:11:37;76.47;;;70.22;;
54897;SDS011;40800;52.704;6.398;2023-10-19T14:14:03;78.32;;;71.90;;
54897;SDS011;40800;52.704;6.398;2023-10-19T14:16:29;76.47;;;70.37;;
54897;SDS011;40800;52.704;6.398;2023-10-19T14:18:56;72.93;;;66.93;;
54897;SDS011;40800;52.704;6.398;2023-10-19T14:21:21;72.95;;;67.05;;
54897;SDS011;40800;52.704;6.398;2023-10-19T14:23:51;73.25;;;66.95;;
54897;SDS011;40800;52.704;6.398;2023-10-19T14:26:18;74.82;;;68.65;;
54897;SDS011;40800;52.704;6.398;2023-10-19T14:28:44;73.15;;;67.25;;
54897;SDS011;40800;52.704;6.398;2023-10-19T14:31:09;73.28;;;67.32;;
54897;SDS011;40800;52.704;6.398;2023-10-19T14:33:36;72.93;;;67.32;;
54897;SDS011;40800;52.704;6.398;2023-10-19T14:36:06;72.20;;;66.20;;
54897;SDS011;40800;52.704;6.398;2023-10-19T14:38:32;70.93;;;65.35;;
54897;SDS011;40800;52.704;6.398;2023-10-19T14:40:58;72.82;;;66.85;;
54897;SDS011;40800;52.704;6.398;2023-10-19T14:43:24;67.32;;;61.92;;
54897;SDS011;40800;52.704;6.398;2023-10-19T14:45:54;71.13;;;65.72;;
54897;SDS011;40800;52.704;6.398;2023-10-19T14:48:22;69.05;;;63.55;;
54897;SDS011;40800;52.704;6.398;2023-10-19T14:50:48;68.45;;;63.25;;
54897;SDS011;40800;52.704;6.398;2023-10-19T14:53:16;67.78;;;62.47;;
54897;SDS011;40800;52.704;6.398;2023-10-19T14:55:43;67.05;;;61.80;;
54897;SDS011;40800;52.704;6.398;2023-10-19T14:58:11;66.85;;;61.55;;